RYR92JT LICC-LIME
Flight info
| Callsign | RYR92JT |
|---|---|
| Flight time | 1h 36m |
| Altitude | 36000 |
| Route | BUDIN DCT DIRED DCT PEVIR DCT NEKPI DCT LAT DCT GIKIN DCT AMTEL DCT LOMED DCT IPLUB DCT OSBUL |
| Aircraft | B738/M-SDE2E3FGHIRWXY/LB1 |
Departure
| Time | 2026-05-04 19:21 |
|---|---|
| Airport | Catania-Fontanarossa Airport (LICC) |
Arrival
| Time | 2026-05-04 20:57 |
|---|---|
| Airport | Il Caravaggio International Airport (LIME) |
| Time | Latitude | Longitude | Altitude | Speed | Heading |
|---|---|---|---|---|---|
| 2026-05-04 18:45 | 37.46982 | 15.06413 | 29 ft | 0 kts | 31° |
| 2026-05-04 19:11 | 37.46976 | 15.06409 | 29 ft | 2 kts | 31° |
| 2026-05-04 19:11 | 37.46962 | 15.06398 | 29 ft | 2 kts | 31° |
| 2026-05-04 19:12 | 37.46948 | 15.06388 | 29 ft | 2 kts | 31° |
| 2026-05-04 19:12 | 37.46931 | 15.06360 | 30 ft | 1 kts | 117° |
| 2026-05-04 19:12 | 37.46933 | 15.06354 | 30 ft | 0 kts | 124° |
| 2026-05-04 19:14 | 37.46933 | 15.06355 | 30 ft | 1 kts | 124° |
| 2026-05-04 19:15 | 37.46915 | 15.06368 | 30 ft | 4 kts | 158° |
| 2026-05-04 19:15 | 37.46882 | 15.06383 | 31 ft | 6 kts | 161° |
| 2026-05-04 19:15 | 37.46841 | 15.06403 | 32 ft | 6 kts | 146° |
| 2026-05-04 19:15 | 37.46830 | 15.06467 | 32 ft | 11 kts | 85° |
| 2026-05-04 19:16 | 37.46838 | 15.06569 | 32 ft | 14 kts | 85° |
| 2026-05-04 19:16 | 37.46849 | 15.06705 | 33 ft | 16 kts | 83° |
| 2026-05-04 19:16 | 37.46862 | 15.06846 | 30 ft | 18 kts | 84° |
| 2026-05-04 19:16 | 37.46876 | 15.07023 | 31 ft | 21 kts | 84° |
| 2026-05-04 19:17 | 37.46891 | 15.07201 | 33 ft | 20 kts | 83° |
| 2026-05-04 19:17 | 37.46907 | 15.07381 | 31 ft | 22 kts | 84° |
| 2026-05-04 19:17 | 37.46923 | 15.07577 | 31 ft | 22 kts | 83° |
| 2026-05-04 19:17 | 37.46939 | 15.07769 | 29 ft | 22 kts | 84° |
| 2026-05-04 19:18 | 37.46954 | 15.07955 | 27 ft | 21 kts | 84° |
| 2026-05-04 19:18 | 37.46956 | 15.07981 | 25 ft | 0 kts | 85° |
| 2026-05-04 19:19 | 37.46956 | 15.07982 | 25 ft | 1 kts | 85° |
| 2026-05-04 19:19 | 37.46958 | 15.08007 | 24 ft | 6 kts | 88° |
| 2026-05-04 19:19 | 37.46929 | 15.08080 | 25 ft | 11 kts | 144° |
| 2026-05-04 19:19 | 37.46854 | 15.08088 | 25 ft | 11 kts | 193° |
| 2026-05-04 19:20 | 37.46800 | 15.08022 | 27 ft | 13 kts | 249° |
| 2026-05-04 19:20 | 37.46781 | 15.07853 | 27 ft | 40 kts | 263° |
| 2026-05-04 19:20 | 37.46723 | 15.07159 | 31 ft | 118 kts | 264° |
| 2026-05-04 19:20 | 37.46623 | 15.05845 | 105 ft | 178 kts | 265° |
| 2026-05-04 19:21 | 37.46466 | 15.04146 | 593 ft | 207 kts | 264° |
| 2026-05-04 19:21 | 37.46304 | 15.02264 | 1188 ft | 224 kts | 264° |
| 2026-05-04 19:21 | 37.46131 | 15.00261 | 1794 ft | 237 kts | 264° |
| 2026-05-04 19:21 | 37.45963 | 14.98165 | 2289 ft | 244 kts | 264° |
| 2026-05-04 19:22 | 37.45790 | 14.96029 | 2755 ft | 247 kts | 264° |
| 2026-05-04 19:22 | 37.45610 | 14.93855 | 3230 ft | 253 kts | 264° |
| 2026-05-04 19:22 | 37.45425 | 14.91652 | 3699 ft | 259 kts | 264° |
| 2026-05-04 19:22 | 37.45232 | 14.89401 | 4231 ft | 258 kts | 264° |
| 2026-05-04 19:23 | 37.45036 | 14.87135 | 4864 ft | 263 kts | 264° |
| 2026-05-04 19:23 | 37.44836 | 14.84839 | 5457 ft | 265 kts | 264° |
| 2026-05-04 19:23 | 37.44630 | 14.82494 | 6068 ft | 267 kts | 264° |
| 2026-05-04 19:23 | 37.44440 | 14.80165 | 6670 ft | 268 kts | 269° |
| 2026-05-04 19:24 | 37.44798 | 14.77913 | 7216 ft | 268 kts | 297° |
| 2026-05-04 19:24 | 37.45975 | 14.76129 | 7801 ft | 267 kts | 325° |
| 2026-05-04 19:24 | 37.47670 | 14.75207 | 8403 ft | 268 kts | 348° |
| 2026-05-04 19:24 | 37.49553 | 14.74908 | 9044 ft | 272 kts | 353° |
| 2026-05-04 19:25 | 37.51441 | 14.74680 | 9670 ft | 280 kts | 353° |
| 2026-05-04 19:25 | 37.53414 | 14.74434 | 10287 ft | 289 kts | 353° |
| 2026-05-04 19:25 | 37.55445 | 14.74176 | 10869 ft | 297 kts | 353° |
| 2026-05-04 19:25 | 37.57555 | 14.73897 | 11474 ft | 305 kts | 352° |
| 2026-05-04 19:26 | 37.59694 | 14.73610 | 12079 ft | 313 kts | 352° |
| 2026-05-04 19:26 | 37.61850 | 14.73318 | 12676 ft | 319 kts | 352° |
| 2026-05-04 19:26 | 37.64080 | 14.73015 | 13310 ft | 326 kts | 352° |
| 2026-05-04 19:26 | 37.66355 | 14.72708 | 13956 ft | 332 kts | 352° |
| 2026-05-04 19:27 | 37.68669 | 14.72394 | 14513 ft | 338 kts | 352° |
| 2026-05-04 19:27 | 37.71033 | 14.72073 | 15094 ft | 343 kts | 352° |
| 2026-05-04 19:27 | 37.73424 | 14.71749 | 15672 ft | 348 kts | 352° |
| 2026-05-04 19:27 | 37.75846 | 14.71420 | 16274 ft | 352 kts | 351° |
| 2026-05-04 19:28 | 37.78296 | 14.71087 | 16876 ft | 355 kts | 351° |
| 2026-05-04 19:28 | 37.80764 | 14.70751 | 17509 ft | 359 kts | 351° |
| 2026-05-04 19:28 | 37.83258 | 14.70412 | 18139 ft | 362 kts | 351° |
| 2026-05-04 19:28 | 37.85776 | 14.70069 | 18735 ft | 365 kts | 351° |
| 2026-05-04 19:29 | 37.88308 | 14.69724 | 19282 ft | 366 kts | 351° |
| 2026-05-04 19:29 | 37.90848 | 14.69378 | 19853 ft | 368 kts | 351° |
| 2026-05-04 19:29 | 37.93423 | 14.69468 | 20407 ft | 376 kts | 7° |
| 2026-05-04 19:29 | 37.95911 | 14.70585 | 21012 ft | 384 kts | 23° |
| 2026-05-04 19:30 | 37.98258 | 14.72207 | 21628 ft | 386 kts | 25° |
| 2026-05-04 19:30 | 38.00586 | 14.73908 | 22232 ft | 386 kts | 25° |
| 2026-05-04 19:30 | 38.02906 | 14.75625 | 22843 ft | 386 kts | 25° |
| 2026-05-04 19:30 | 38.05223 | 14.77333 | 23492 ft | 385 kts | 25° |
| 2026-05-04 19:31 | 38.07539 | 14.79025 | 24061 ft | 384 kts | 25° |
| 2026-05-04 19:31 | 38.09856 | 14.80704 | 24609 ft | 383 kts | 24° |
| 2026-05-04 19:31 | 38.12136 | 14.82350 | 25157 ft | 381 kts | 24° |
| 2026-05-04 19:31 | 38.14435 | 14.84005 | 25719 ft | 379 kts | 24° |
| 2026-05-04 19:32 | 38.16728 | 14.85655 | 26297 ft | 377 kts | 24° |
| 2026-05-04 19:32 | 38.19002 | 14.87292 | 26877 ft | 374 kts | 24° |
| 2026-05-04 19:32 | 38.21254 | 14.88913 | 27472 ft | 371 kts | 24° |
| 2026-05-04 19:32 | 38.23483 | 14.90520 | 28077 ft | 367 kts | 24° |
| 2026-05-04 19:33 | 38.25688 | 14.92111 | 28694 ft | 362 kts | 24° |
| 2026-05-04 19:33 | 38.27865 | 14.93682 | 29327 ft | 357 kts | 23° |
| 2026-05-04 19:33 | 38.30017 | 14.95236 | 29803 ft | 356 kts | 23° |
| 2026-05-04 19:33 | 38.32176 | 14.96793 | 30209 ft | 356 kts | 23° |
| 2026-05-04 19:34 | 38.34342 | 14.98356 | 30475 ft | 360 kts | 23° |
| 2026-05-04 19:34 | 38.36530 | 14.99936 | 30726 ft | 363 kts | 23° |
| 2026-05-04 19:34 | 38.38738 | 15.01534 | 30982 ft | 366 kts | 22° |
| 2026-05-04 19:34 | 38.40934 | 15.03126 | 31233 ft | 369 kts | 22° |
| 2026-05-04 19:35 | 38.43142 | 15.04726 | 31486 ft | 372 kts | 22° |
| 2026-05-04 19:35 | 38.45418 | 15.06291 | 31728 ft | 369 kts | 14° |
| 2026-05-04 19:35 | 38.47867 | 15.06962 | 31975 ft | 356 kts | 355° |
| 2026-05-04 19:35 | 38.50290 | 15.06662 | 32233 ft | 347 kts | 339° |
| 2026-05-04 19:36 | 38.52559 | 15.05665 | 32522 ft | 345 kts | 335° |
| 2026-05-04 19:36 | 38.54803 | 15.04519 | 32676 ft | 350 kts | 334° |
| 2026-05-04 19:36 | 38.57065 | 15.03322 | 32829 ft | 355 kts | 334° |
| 2026-05-04 19:36 | 38.59360 | 15.02104 | 32957 ft | 360 kts | 334° |
| 2026-05-04 19:37 | 38.61689 | 15.00877 | 33106 ft | 364 kts | 334° |
| 2026-05-04 19:37 | 38.64049 | 14.99644 | 33242 ft | 369 kts | 334° |
| 2026-05-04 19:37 | 38.66445 | 14.98400 | 33384 ft | 373 kts | 334° |
| 2026-05-04 19:37 | 38.68866 | 14.97150 | 33528 ft | 378 kts | 334° |
| 2026-05-04 19:38 | 38.71286 | 14.95902 | 33663 ft | 382 kts | 334° |
| 2026-05-04 19:38 | 38.73763 | 14.94627 | 33805 ft | 385 kts | 334° |
| 2026-05-04 19:38 | 38.76264 | 14.93341 | 33946 ft | 389 kts | 334° |
| 2026-05-04 19:38 | 38.78787 | 14.92042 | 34085 ft | 393 kts | 334° |
| 2026-05-04 19:39 | 38.81329 | 14.90732 | 34221 ft | 396 kts | 334° |
| 2026-05-04 19:39 | 38.83896 | 14.89409 | 34343 ft | 399 kts | 334° |
| 2026-05-04 19:39 | 38.86479 | 14.88077 | 34454 ft | 402 kts | 334° |
| 2026-05-04 19:39 | 38.89081 | 14.86733 | 34587 ft | 405 kts | 334° |
| 2026-05-04 19:40 | 38.91701 | 14.85379 | 34707 ft | 407 kts | 334° |
| 2026-05-04 19:40 | 38.94338 | 14.84016 | 34823 ft | 410 kts | 334° |
| 2026-05-04 19:40 | 38.96989 | 14.82643 | 34958 ft | 412 kts | 334° |
| 2026-05-04 19:40 | 38.99654 | 14.81263 | 35078 ft | 414 kts | 334° |
| 2026-05-04 19:41 | 39.02330 | 14.79876 | 35204 ft | 416 kts | 334° |
| 2026-05-04 19:41 | 39.05024 | 14.78477 | 35323 ft | 418 kts | 334° |
| 2026-05-04 19:41 | 39.07727 | 14.77074 | 35451 ft | 420 kts | 334° |
| 2026-05-04 19:41 | 39.10439 | 14.75664 | 35577 ft | 421 kts | 334° |
| 2026-05-04 19:42 | 39.13157 | 14.74251 | 35700 ft | 422 kts | 334° |
| 2026-05-04 19:42 | 39.15885 | 14.72831 | 35820 ft | 423 kts | 334° |
| 2026-05-04 19:42 | 39.18618 | 14.71407 | 35949 ft | 424 kts | 334° |
| 2026-05-04 19:42 | 39.21344 | 14.69986 | 36067 ft | 421 kts | 334° |
| 2026-05-04 19:43 | 39.24043 | 14.68579 | 36114 ft | 418 kts | 334° |
| 2026-05-04 19:43 | 39.29432 | 14.65762 | 36148 ft | 419 kts | 334° |
| 2026-05-04 19:44 | 39.34857 | 14.62920 | 36147 ft | 422 kts | 334° |
| 2026-05-04 19:44 | 39.40313 | 14.60058 | 36138 ft | 424 kts | 334° |
| 2026-05-04 19:45 | 39.45746 | 14.57204 | 36139 ft | 425 kts | 334° |
| 2026-05-04 19:45 | 39.51220 | 14.54324 | 36139 ft | 425 kts | 334° |
| 2026-05-04 19:46 | 39.56679 | 14.51407 | 36143 ft | 423 kts | 331° |
| 2026-05-04 19:46 | 39.61825 | 14.47782 | 36137 ft | 420 kts | 328° |
| 2026-05-04 19:47 | 39.66093 | 14.44666 | 36144 ft | 420 kts | 328° |
| 2026-05-04 19:47 | 39.71187 | 14.40960 | 36143 ft | 419 kts | 328° |
| 2026-05-04 19:48 | 39.76244 | 14.37298 | 36147 ft | 419 kts | 328° |
| 2026-05-04 19:48 | 39.81334 | 14.33613 | 36146 ft | 418 kts | 328° |
| 2026-05-04 19:49 | 39.86416 | 14.29930 | 36141 ft | 418 kts | 328° |
| 2026-05-04 19:49 | 39.91498 | 14.26240 | 36142 ft | 418 kts | 328° |
| 2026-05-04 19:50 | 39.96576 | 14.22546 | 36142 ft | 418 kts | 328° |
| 2026-05-04 19:50 | 40.01650 | 14.18848 | 36145 ft | 418 kts | 328° |
| 2026-05-04 19:51 | 40.06720 | 14.15147 | 36146 ft | 417 kts | 328° |
| 2026-05-04 19:51 | 40.11787 | 14.11441 | 36145 ft | 417 kts | 328° |
| 2026-05-04 19:52 | 40.16847 | 14.07734 | 36143 ft | 417 kts | 328° |
| 2026-05-04 19:52 | 40.21876 | 14.04044 | 36147 ft | 417 kts | 327° |
| 2026-05-04 19:53 | 40.26944 | 14.00319 | 36141 ft | 417 kts | 327° |
| 2026-05-04 19:53 | 40.31907 | 13.96378 | 36143 ft | 416 kts | 324° |
| 2026-05-04 19:54 | 40.36736 | 13.92216 | 36146 ft | 416 kts | 323° |
| 2026-05-04 19:54 | 40.41573 | 13.88031 | 36146 ft | 416 kts | 324° |
| 2026-05-04 19:55 | 40.46393 | 13.83889 | 36144 ft | 416 kts | 324° |
| 2026-05-04 19:55 | 40.51253 | 13.79725 | 36145 ft | 417 kts | 324° |
| 2026-05-04 19:56 | 40.56121 | 13.75551 | 36148 ft | 417 kts | 324° |
| 2026-05-04 19:56 | 40.60988 | 13.71371 | 36144 ft | 417 kts | 323° |
| 2026-05-04 19:57 | 40.65851 | 13.67187 | 36145 ft | 418 kts | 323° |
| 2026-05-04 19:57 | 40.70689 | 13.63016 | 36144 ft | 418 kts | 323° |
| 2026-05-04 19:58 | 40.75565 | 13.58805 | 36146 ft | 419 kts | 323° |
| 2026-05-04 19:58 | 40.80446 | 13.54583 | 36144 ft | 420 kts | 323° |
| 2026-05-04 19:59 | 40.85333 | 13.50347 | 36146 ft | 421 kts | 323° |
| 2026-05-04 19:59 | 40.90234 | 13.46092 | 36140 ft | 421 kts | 323° |
| 2026-05-04 20:00 | 40.95138 | 13.41827 | 36147 ft | 422 kts | 323° |
| 2026-05-04 20:00 | 41.00045 | 13.37551 | 36144 ft | 422 kts | 323° |
| 2026-05-04 20:01 | 41.04953 | 13.33266 | 36142 ft | 423 kts | 323° |
| 2026-05-04 20:01 | 41.09861 | 13.28975 | 36144 ft | 423 kts | 323° |
| 2026-05-04 20:02 | 41.14767 | 13.24675 | 36148 ft | 423 kts | 323° |
| 2026-05-04 20:02 | 41.19673 | 13.20369 | 36147 ft | 423 kts | 323° |
| 2026-05-04 20:03 | 41.24574 | 13.16059 | 36141 ft | 423 kts | 323° |
| 2026-05-04 20:03 | 41.29474 | 13.11742 | 36140 ft | 422 kts | 323° |
| 2026-05-04 20:04 | 41.34369 | 13.07439 | 36142 ft | 422 kts | 324° |
| 2026-05-04 20:04 | 41.39389 | 13.03439 | 36142 ft | 423 kts | 326° |
| 2026-05-04 20:05 | 41.44469 | 12.99481 | 36144 ft | 423 kts | 325° |
| 2026-05-04 20:05 | 41.49528 | 12.95468 | 36139 ft | 422 kts | 325° |
| 2026-05-04 20:06 | 41.54565 | 12.91448 | 36141 ft | 422 kts | 325° |
| 2026-05-04 20:06 | 41.59620 | 12.87436 | 36145 ft | 423 kts | 325° |
| 2026-05-04 20:07 | 41.64693 | 12.83418 | 36147 ft | 423 kts | 325° |
| 2026-05-04 20:07 | 41.69761 | 12.79394 | 36150 ft | 423 kts | 325° |
| 2026-05-04 20:08 | 41.74783 | 12.75397 | 36156 ft | 422 kts | 324° |
| 2026-05-04 20:08 | 41.79821 | 12.71377 | 36166 ft | 422 kts | 324° |
| 2026-05-04 20:09 | 41.84869 | 12.67340 | 36160 ft | 423 kts | 324° |
| 2026-05-04 20:09 | 41.89920 | 12.63294 | 36155 ft | 423 kts | 324° |
| 2026-05-04 20:10 | 41.94983 | 12.59232 | 36155 ft | 424 kts | 324° |
| 2026-05-04 20:10 | 42.00046 | 12.55161 | 36150 ft | 425 kts | 324° |
| 2026-05-04 20:11 | 42.05124 | 12.51072 | 36140 ft | 425 kts | 324° |
| 2026-05-04 20:11 | 42.10198 | 12.46978 | 36156 ft | 425 kts | 324° |
| 2026-05-04 20:12 | 42.15273 | 12.42875 | 36151 ft | 426 kts | 324° |
| 2026-05-04 20:12 | 42.20347 | 12.38765 | 36147 ft | 426 kts | 324° |
| 2026-05-04 20:13 | 42.25428 | 12.34641 | 36136 ft | 426 kts | 324° |
| 2026-05-04 20:13 | 42.30518 | 12.30503 | 36134 ft | 426 kts | 324° |
| 2026-05-04 20:14 | 42.35567 | 12.26390 | 36136 ft | 426 kts | 324° |
| 2026-05-04 20:14 | 42.40654 | 12.22238 | 36133 ft | 426 kts | 324° |
| 2026-05-04 20:15 | 42.45732 | 12.18085 | 36136 ft | 426 kts | 324° |
| 2026-05-04 20:15 | 42.50814 | 12.13920 | 36140 ft | 427 kts | 324° |
| 2026-05-04 20:16 | 42.55892 | 12.09751 | 36133 ft | 427 kts | 324° |
| 2026-05-04 20:16 | 42.60970 | 12.05575 | 36134 ft | 427 kts | 324° |
| 2026-05-04 20:17 | 42.66161 | 12.01609 | 36132 ft | 429 kts | 327° |
| 2026-05-04 20:17 | 42.71445 | 11.97840 | 36139 ft | 429 kts | 327° |
| 2026-05-04 20:18 | 42.76725 | 11.94059 | 36134 ft | 429 kts | 327° |
| 2026-05-04 20:18 | 42.81996 | 11.90239 | 36127 ft | 429 kts | 327° |
| 2026-05-04 20:18 | 42.84645 | 11.88308 | 35716 ft | 435 kts | 327° |
| 2026-05-04 20:19 | 42.87310 | 11.86363 | 35239 ft | 433 kts | 326° |
| 2026-05-04 20:19 | 42.89959 | 11.84431 | 34747 ft | 430 kts | 326° |
| 2026-05-04 20:19 | 42.92582 | 11.82517 | 34274 ft | 427 kts | 326° |
| 2026-05-04 20:19 | 42.95198 | 11.80603 | 33761 ft | 427 kts | 326° |
| 2026-05-04 20:20 | 42.97811 | 11.78688 | 33226 ft | 427 kts | 326° |
| 2026-05-04 20:20 | 43.00437 | 11.76761 | 32736 ft | 431 kts | 326° |
| 2026-05-04 20:20 | 43.03097 | 11.74805 | 32364 ft | 437 kts | 326° |
| 2026-05-04 20:20 | 43.05754 | 11.72850 | 32039 ft | 441 kts | 326° |
| 2026-05-04 20:21 | 43.08490 | 11.70840 | 31792 ft | 441 kts | 326° |
| 2026-05-04 20:21 | 43.11161 | 11.68877 | 31546 ft | 441 kts | 326° |
| 2026-05-04 20:21 | 43.16575 | 11.64889 | 31044 ft | 442 kts | 326° |
| 2026-05-04 20:22 | 43.19287 | 11.62888 | 30810 ft | 444 kts | 327° |
| 2026-05-04 20:22 | 43.22008 | 11.60878 | 30567 ft | 445 kts | 327° |
| 2026-05-04 20:22 | 43.24742 | 11.58856 | 30335 ft | 447 kts | 327° |
| 2026-05-04 20:22 | 43.27489 | 11.56823 | 30078 ft | 449 kts | 327° |
| 2026-05-04 20:23 | 43.30244 | 11.54783 | 29801 ft | 451 kts | 327° |
| 2026-05-04 20:23 | 43.33009 | 11.52733 | 29519 ft | 453 kts | 327° |
| 2026-05-04 20:23 | 43.35788 | 11.50671 | 29252 ft | 455 kts | 327° |
| 2026-05-04 20:23 | 43.38587 | 11.48592 | 28986 ft | 457 kts | 327° |
| 2026-05-04 20:24 | 43.41393 | 11.46505 | 28724 ft | 459 kts | 327° |
| 2026-05-04 20:24 | 43.44206 | 11.44411 | 28452 ft | 461 kts | 327° |
| 2026-05-04 20:24 | 43.46999 | 11.42330 | 28190 ft | 463 kts | 328° |
| 2026-05-04 20:24 | 43.49835 | 11.40214 | 27931 ft | 464 kts | 328° |
| 2026-05-04 20:25 | 43.52719 | 11.38061 | 27665 ft | 466 kts | 328° |
| 2026-05-04 20:25 | 43.55574 | 11.35927 | 27410 ft | 467 kts | 328° |
| 2026-05-04 20:25 | 43.58395 | 11.33815 | 27162 ft | 469 kts | 328° |
| 2026-05-04 20:25 | 43.61266 | 11.31664 | 26913 ft | 470 kts | 328° |
| 2026-05-04 20:26 | 43.64147 | 11.29503 | 26657 ft | 472 kts | 328° |
| 2026-05-04 20:26 | 43.67035 | 11.27335 | 26379 ft | 473 kts | 328° |
| 2026-05-04 20:26 | 43.69947 | 11.25144 | 25959 ft | 478 kts | 328° |
| 2026-05-04 20:26 | 43.72873 | 11.22942 | 25605 ft | 480 kts | 329° |
| 2026-05-04 20:27 | 43.75801 | 11.20736 | 25240 ft | 478 kts | 329° |
| 2026-05-04 20:27 | 43.78699 | 11.18553 | 24882 ft | 472 kts | 329° |
| 2026-05-04 20:27 | 43.81572 | 11.16384 | 24535 ft | 470 kts | 329° |
| 2026-05-04 20:27 | 43.84445 | 11.14212 | 24189 ft | 470 kts | 329° |
| 2026-05-04 20:28 | 43.87314 | 11.12040 | 23852 ft | 470 kts | 329° |
| 2026-05-04 20:28 | 43.90186 | 11.09863 | 23481 ft | 470 kts | 329° |
| 2026-05-04 20:28 | 43.93052 | 11.07689 | 23091 ft | 468 kts | 329° |
| 2026-05-04 20:28 | 43.95903 | 11.05524 | 22692 ft | 466 kts | 329° |
| 2026-05-04 20:29 | 43.98731 | 11.03375 | 22305 ft | 462 kts | 329° |
| 2026-05-04 20:29 | 44.01534 | 11.01242 | 21926 ft | 457 kts | 329° |
| 2026-05-04 20:29 | 44.04288 | 10.99070 | 21549 ft | 452 kts | 327° |
| 2026-05-04 20:29 | 44.06948 | 10.96779 | 21185 ft | 448 kts | 325° |
| 2026-05-04 20:30 | 44.09555 | 10.94449 | 20830 ft | 444 kts | 325° |
| 2026-05-04 20:30 | 44.12148 | 10.92119 | 20474 ft | 441 kts | 325° |
| 2026-05-04 20:30 | 44.14723 | 10.89820 | 20109 ft | 438 kts | 325° |
| 2026-05-04 20:30 | 44.17287 | 10.87547 | 19755 ft | 436 kts | 326° |
| 2026-05-04 20:31 | 44.19840 | 10.85295 | 19397 ft | 432 kts | 326° |
| 2026-05-04 20:31 | 44.22363 | 10.83072 | 18725 ft | 429 kts | 326° |
| 2026-05-04 20:31 | 44.24851 | 10.80878 | 18449 ft | 416 kts | 326° |
| 2026-05-04 20:31 | 44.27255 | 10.78752 | 18049 ft | 405 kts | 325° |
| 2026-05-04 20:32 | 44.29610 | 10.76660 | 17640 ft | 395 kts | 325° |
| 2026-05-04 20:32 | 44.31873 | 10.74647 | 17233 ft | 378 kts | 325° |
| 2026-05-04 20:32 | 44.34053 | 10.72706 | 16826 ft | 363 kts | 325° |
| 2026-05-04 20:32 | 44.36143 | 10.70843 | 16440 ft | 353 kts | 325° |
| 2026-05-04 20:33 | 44.38204 | 10.69002 | 16062 ft | 349 kts | 325° |
| 2026-05-04 20:33 | 44.40242 | 10.67179 | 15691 ft | 346 kts | 325° |
| 2026-05-04 20:33 | 44.42258 | 10.65375 | 15327 ft | 342 kts | 325° |
| 2026-05-04 20:33 | 44.43580 | 10.64191 | 15107 ft | 340 kts | 326° |
| 2026-05-04 20:34 | 44.45566 | 10.62413 | 14762 ft | 337 kts | 325° |
| 2026-05-04 20:34 | 44.47530 | 10.60653 | 14427 ft | 334 kts | 326° |
| 2026-05-04 20:34 | 44.49481 | 10.58903 | 14092 ft | 332 kts | 326° |
| 2026-05-04 20:34 | 44.51419 | 10.57165 | 13733 ft | 330 kts | 326° |
| 2026-05-04 20:35 | 44.53343 | 10.55436 | 13359 ft | 328 kts | 326° |
| 2026-05-04 20:35 | 44.55260 | 10.53713 | 12978 ft | 326 kts | 326° |
| 2026-05-04 20:35 | 44.57150 | 10.52015 | 12587 ft | 318 kts | 326° |
| 2026-05-04 20:35 | 44.58984 | 10.50365 | 12214 ft | 310 kts | 326° |
| 2026-05-04 20:36 | 44.60778 | 10.48749 | 11843 ft | 303 kts | 326° |
| 2026-05-04 20:36 | 44.62540 | 10.47160 | 11486 ft | 298 kts | 326° |
| 2026-05-04 20:36 | 44.64282 | 10.45588 | 11131 ft | 299 kts | 326° |
| 2026-05-04 20:36 | 44.66042 | 10.43999 | 10802 ft | 304 kts | 326° |
| 2026-05-04 20:37 | 44.67830 | 10.42382 | 10462 ft | 307 kts | 326° |
| 2026-05-04 20:37 | 44.69624 | 10.40760 | 10134 ft | 307 kts | 326° |
| 2026-05-04 20:37 | 44.71421 | 10.39134 | 9769 ft | 307 kts | 326° |
| 2026-05-04 20:37 | 44.73216 | 10.37509 | 9402 ft | 307 kts | 326° |
| 2026-05-04 20:38 | 44.75010 | 10.35883 | 9046 ft | 306 kts | 326° |
| 2026-05-04 20:38 | 44.76800 | 10.34260 | 8684 ft | 306 kts | 326° |
| 2026-05-04 20:38 | 44.78591 | 10.32635 | 8339 ft | 306 kts | 326° |
| 2026-05-04 20:38 | 44.80373 | 10.31017 | 8081 ft | 301 kts | 326° |
| 2026-05-04 20:39 | 44.82099 | 10.29449 | 8040 ft | 290 kts | 326° |
| 2026-05-04 20:39 | 44.83788 | 10.27937 | 8036 ft | 286 kts | 327° |
| 2026-05-04 20:39 | 44.85479 | 10.26440 | 8057 ft | 288 kts | 327° |
| 2026-05-04 20:39 | 44.87184 | 10.24932 | 8050 ft | 290 kts | 327° |
| 2026-05-04 20:40 | 44.88889 | 10.23424 | 8040 ft | 290 kts | 327° |
| 2026-05-04 20:40 | 44.90602 | 10.21905 | 7894 ft | 293 kts | 327° |
| 2026-05-04 20:40 | 44.92334 | 10.20367 | 7665 ft | 295 kts | 327° |
| 2026-05-04 20:40 | 44.94061 | 10.18832 | 7438 ft | 291 kts | 327° |
| 2026-05-04 20:41 | 44.95741 | 10.17339 | 7219 ft | 287 kts | 327° |
| 2026-05-04 20:41 | 44.97443 | 10.15823 | 6990 ft | 283 kts | 327° |
| 2026-05-04 20:41 | 44.99100 | 10.14347 | 6768 ft | 281 kts | 327° |
| 2026-05-04 20:41 | 45.00748 | 10.12878 | 6556 ft | 279 kts | 327° |
| 2026-05-04 20:42 | 45.02379 | 10.11423 | 6331 ft | 277 kts | 327° |
| 2026-05-04 20:42 | 45.04004 | 10.09972 | 6124 ft | 276 kts | 327° |
| 2026-05-04 20:42 | 45.05630 | 10.08519 | 6080 ft | 278 kts | 327° |
| 2026-05-04 20:42 | 45.07289 | 10.07113 | 6004 ft | 278 kts | 337° |
| 2026-05-04 20:43 | 45.09177 | 10.06786 | 5908 ft | 275 kts | 12° |
| 2026-05-04 20:43 | 45.10979 | 10.07617 | 5843 ft | 273 kts | 20° |
| 2026-05-04 20:43 | 45.12770 | 10.08517 | 5743 ft | 273 kts | 20° |
| 2026-05-04 20:43 | 45.14566 | 10.09405 | 5663 ft | 273 kts | 20° |
| 2026-05-04 20:44 | 45.16358 | 10.10280 | 5588 ft | 272 kts | 19° |
| 2026-05-04 20:44 | 45.18149 | 10.11146 | 5508 ft | 272 kts | 19° |
| 2026-05-04 20:44 | 45.19936 | 10.12005 | 5419 ft | 268 kts | 19° |
| 2026-05-04 20:44 | 45.21677 | 10.12837 | 5330 ft | 259 kts | 19° |
| 2026-05-04 20:45 | 45.23361 | 10.13641 | 5243 ft | 253 kts | 19° |
| 2026-05-04 20:45 | 45.25020 | 10.14432 | 5166 ft | 250 kts | 19° |
| 2026-05-04 20:45 | 45.26661 | 10.15214 | 5088 ft | 248 kts | 19° |
| 2026-05-04 20:45 | 45.28272 | 10.15980 | 5012 ft | 247 kts | 19° |
| 2026-05-04 20:46 | 45.29918 | 10.16764 | 4940 ft | 246 kts | 19° |
| 2026-05-04 20:46 | 45.31538 | 10.17536 | 4864 ft | 245 kts | 19° |
| 2026-05-04 20:46 | 45.33129 | 10.18294 | 4796 ft | 245 kts | 19° |
| 2026-05-04 20:46 | 45.34729 | 10.19057 | 4753 ft | 240 kts | 18° |
| 2026-05-04 20:47 | 45.36335 | 10.19823 | 4682 ft | 243 kts | 18° |
| 2026-05-04 20:47 | 45.37954 | 10.20595 | 4613 ft | 247 kts | 18° |
| 2026-05-04 20:47 | 45.39565 | 10.21364 | 4536 ft | 248 kts | 18° |
| 2026-05-04 20:47 | 45.41203 | 10.22147 | 4457 ft | 247 kts | 18° |
| 2026-05-04 20:48 | 45.42828 | 10.22923 | 4365 ft | 246 kts | 18° |
| 2026-05-04 20:48 | 45.44449 | 10.23698 | 4296 ft | 245 kts | 18° |
| 2026-05-04 20:48 | 45.46123 | 10.23990 | 4184 ft | 243 kts | 349° |
| 2026-05-04 20:48 | 45.47634 | 10.22988 | 4113 ft | 243 kts | 320° |
| 2026-05-04 20:49 | 45.48826 | 10.21297 | 4013 ft | 240 kts | 310° |
| 2026-05-04 20:49 | 45.49884 | 10.19528 | 3978 ft | 228 kts | 309° |
| 2026-05-04 20:49 | 45.50885 | 10.17823 | 3964 ft | 222 kts | 309° |
| 2026-05-04 20:49 | 45.51860 | 10.16170 | 3970 ft | 213 kts | 309° |
| 2026-05-04 20:50 | 45.52801 | 10.14585 | 3955 ft | 207 kts | 310° |
| 2026-05-04 20:50 | 45.53729 | 10.13029 | 3962 ft | 206 kts | 310° |
| 2026-05-04 20:50 | 45.54646 | 10.11498 | 3944 ft | 199 kts | 310° |
| 2026-05-04 20:50 | 45.55532 | 10.10022 | 3898 ft | 194 kts | 310° |
| 2026-05-04 20:51 | 45.56402 | 10.08578 | 3876 ft | 191 kts | 310° |
| 2026-05-04 20:51 | 45.57258 | 10.07156 | 3856 ft | 186 kts | 310° |
| 2026-05-04 20:51 | 45.58091 | 10.05776 | 3817 ft | 182 kts | 310° |
| 2026-05-04 20:51 | 45.58913 | 10.04411 | 3758 ft | 180 kts | 310° |
| 2026-05-04 20:52 | 45.59730 | 10.03056 | 3714 ft | 180 kts | 310° |
| 2026-05-04 20:52 | 45.60552 | 10.01692 | 3628 ft | 182 kts | 310° |
| 2026-05-04 20:52 | 45.61259 | 10.00212 | 3502 ft | 180 kts | 288° |
| 2026-05-04 20:52 | 45.61556 | 9.98534 | 3492 ft | 170 kts | 285° |
| 2026-05-04 20:53 | 45.61877 | 9.96918 | 3481 ft | 169 kts | 288° |
| 2026-05-04 20:53 | 45.62236 | 9.95329 | 3485 ft | 168 kts | 287° |
| 2026-05-04 20:53 | 45.62558 | 9.93718 | 3502 ft | 169 kts | 285° |
| 2026-05-04 20:53 | 45.62862 | 9.92095 | 3502 ft | 168 kts | 285° |
| 2026-05-04 20:54 | 45.63157 | 9.90491 | 3338 ft | 167 kts | 285° |
| 2026-05-04 20:54 | 45.63447 | 9.88904 | 3138 ft | 164 kts | 285° |
| 2026-05-04 20:54 | 45.63729 | 9.87356 | 2934 ft | 158 kts | 285° |
| 2026-05-04 20:54 | 45.64003 | 9.85859 | 2720 ft | 154 kts | 285° |
| 2026-05-04 20:55 | 45.64271 | 9.84393 | 2520 ft | 152 kts | 285° |
| 2026-05-04 20:55 | 45.64539 | 9.82932 | 2323 ft | 152 kts | 285° |
| 2026-05-04 20:55 | 45.64805 | 9.81471 | 2121 ft | 152 kts | 284° |
| 2026-05-04 20:55 | 45.65051 | 9.80002 | 1883 ft | 151 kts | 284° |
| 2026-05-04 20:56 | 45.65306 | 9.78558 | 1666 ft | 150 kts | 285° |
| 2026-05-04 20:56 | 45.65565 | 9.77139 | 1440 ft | 146 kts | 286° |
| 2026-05-04 20:56 | 45.65825 | 9.75752 | 1263 ft | 142 kts | 285° |
| 2026-05-04 20:56 | 45.66077 | 9.74386 | 1068 ft | 146 kts | 286° |
| 2026-05-04 20:57 | 45.66362 | 9.72920 | 897 ft | 153 kts | 287° |
| 2026-05-04 20:57 | 45.66640 | 9.71482 | 771 ft | 142 kts | 283° |
| 2026-05-04 20:57 | 45.66835 | 9.70425 | 779 ft | 76 kts | 285° |
| 2026-05-04 20:57 | 45.66884 | 9.70030 | 784 ft | 30 kts | 262° |
| 2026-05-04 20:58 | 45.66853 | 9.69915 | 783 ft | 1 kts | 240° |
| 2026-05-04 20:58 | 45.66849 | 9.69905 | 783 ft | 1 kts | 240° |
| 2026-05-04 20:58 | 45.66845 | 9.69895 | 784 ft | 1 kts | 240° |
| 2026-05-04 20:58 | 45.66842 | 9.69887 | 784 ft | 1 kts | 241° |
| 2026-05-04 20:59 | 45.66838 | 9.69878 | 784 ft | 1 kts | 241° |
| 2026-05-04 20:59 | 45.66835 | 9.69870 | 784 ft | 1 kts | 241° |
| 2026-05-04 20:59 | 45.66824 | 9.69841 | 784 ft | 5 kts | 241° |
| 2026-05-04 20:59 | 45.66807 | 9.69796 | 784 ft | 3 kts | 241° |
| 2026-05-04 21:00 | 45.66793 | 9.69768 | 784 ft | 3 kts | 244° |
| 2026-05-04 21:00 | 45.66795 | 9.69716 | 785 ft | 7 kts | 280° |
| 2026-05-04 21:00 | 45.66799 | 9.69688 | 785 ft | 0 kts | 283° |
| 2026-05-04 21:00 | 45.66799 | 9.69687 | 785 ft | 1 kts | 283° |
| 2026-05-04 21:01 | 45.66807 | 9.69649 | 785 ft | 6 kts | 286° |
| 2026-05-04 21:01 | 45.66805 | 9.69593 | 786 ft | 6 kts | 231° |
| 2026-05-04 21:01 | 45.66770 | 9.69571 | 786 ft | 5 kts | 195° |
| 2026-05-04 21:01 | 45.66744 | 9.69561 | 786 ft | 3 kts | 195° |
| 2026-05-04 21:02 | 45.66723 | 9.69553 | 786 ft | 3 kts | 196° |
| 2026-05-04 21:02 | 45.66718 | 9.69551 | 786 ft | 0 kts | 196° |